Time;durP1;ratioP1;P1;durP2;ratioP2;P2;SDS_P1;SDS_P2;PMS_P1;PMS_P2;Temp;Humidity;BMP_temperature;BMP_pressure;BME280_temperature;BME280_humidity;BME280_pressure;Samples;Min_cycle;Max_cycle;Signal;HPM_P1;HPM_P2
2021/05/20 00:02:05;;;;;;;5.85;2.25;;;;;;;;;;5040272;28;20053;-82
2021/05/20 00:04:32;;;;;;;5.00;2.47;;;;;;;;;;5041389;28;20420;-83
2021/05/20 00:06:58;;;;;;;3.30;2.00;;;;;;;;;;5041456;28;20050;-82
2021/05/20 00:09:24;;;;;;;3.42;2.17;;;;;;;;;;5041937;28;20060;-82
2021/05/20 00:11:50;;;;;;;4.68;2.30;;;;;;;;;;5041821;28;20511;-83
2021/05/20 00:14:16;;;;;;;4.07;2.30;;;;;;;;;;5042159;28;20096;-82
2021/05/20 00:16:42;;;;;;;4.35;2.20;;;;;;;;;;5030999;28;20137;-83
2021/05/20 00:19:08;;;;;;;4.00;2.60;;;;;;;;;;5040597;28;20062;-83
2021/05/20 00:21:35;;;;;;;5.03;2.45;;;;;;;;;;5040583;28;20050;-82
2021/05/20 00:24:01;;;;;;;5.10;2.38;;;;;;;;;;5040360;28;20605;-83
2021/05/20 00:26:27;;;;;;;3.92;2.03;;;;;;;;;;5041666;28;20053;-83
2021/05/20 00:28:53;;;;;;;3.67;2.42;;;;;;;;;;5040727;28;20045;-82
2021/05/20 00:31:19;;;;;;;4.20;2.45;;;;;;;;;;5041587;28;20052;-83
2021/05/20 00:33:45;;;;;;;4.00;2.30;;;;;;;;;;5058134;28;20041;-83
2021/05/20 00:36:11;;;;;;;4.75;2.55;;;;;;;;;;5041774;28;20056;-82
2021/05/20 00:38:38;;;;;;;4.97;2.60;;;;;;;;;;5041541;28;20049;-83
2021/05/20 00:41:05;;;;;;;5.60;2.97;;;;;;;;;;5042115;28;20054;-83
2021/05/20 00:43:31;;;;;;;4.70;2.58;;;;;;;;;;5040716;28;20049;-85
2021/05/20 00:45:57;;;;;;;4.13;2.55;;;;;;;;;;5040327;28;20091;-80
2021/05/20 00:48:23;;;;;;;4.25;2.78;;;;;;;;;;5040478;28;20041;-82
2021/05/20 00:50:49;;;;;;;4.75;2.72;;;;;;;;;;5033200;28;20104;-84
2021/05/20 00:53:16;;;;;;;5.05;2.90;;;;;;;;;;5020192;28;20050;-83
2021/05/20 00:55:43;;;;;;;5.13;3.10;;;;;;;;;;5026157;28;20041;-83
2021/05/20 00:58:11;;;;;;;4.07;2.63;;;;;;;;;;5040823;28;20060;-81
2021/05/20 01:00:37;;;;;;;4.55;3.08;;;;;;;;;;5040514;28;20052;-84
2021/05/20 01:03:04;;;;;;;4.78;2.92;;;;;;;;;;5040524;28;20050;-83
2021/05/20 01:05:30;;;;;;;4.82;3.00;;;;;;;;;;5042039;28;20049;-83
2021/05/20 01:07:56;;;;;;;4.18;2.90;;;;;;;;;;5041080;28;20055;-84
2021/05/20 01:10:22;;;;;;;4.57;3.00;;;;;;;;;;5041278;28;20109;-82
2021/05/20 01:12:49;;;;;;;4.95;3.08;;;;;;;;;;5040199;28;20041;-83
2021/05/20 01:15:20;;;;;;;7.50;3.58;;;;;;;;;;5041220;28;20049;-82
2021/05/20 01:17:48;;;;;;;5.25;3.38;;;;;;;;;;5037380;28;20108;-84
2021/05/20 01:20:18;;;;;;;5.45;3.67;;;;;;;;;;5040975;28;20049;-84
2021/05/20 01:22:44;;;;;;;3.85;2.92;;;;;;;;;;5040198;28;20064;-83
2021/05/20 01:25:11;;;;;;;5.13;3.75;;;;;;;;;;5038774;28;20057;-83
2021/05/20 01:27:38;;;;;;;7.97;3.60;;;;;;;;;;5039317;28;20045;-82
2021/05/20 01:30:05;;;;;;;8.13;3.50;;;;;;;;;;5040836;28;20050;-82
2021/05/20 01:32:31;;;;;;;5.00;3.17;;;;;;;;;;5039487;28;20526;-83
2021/05/20 01:34:58;;;;;;;5.38;3.70;;;;;;;;;;5040577;28;20053;-82
2021/05/20 01:37:25;;;;;;;4.75;3.17;;;;;;;;;;5041005;28;20045;-82
2021/05/20 01:39:51;;;;;;;5.32;3.60;;;;;;;;;;5039483;28;20107;-82
2021/05/20 01:42:17;;;;;;;4.70;3.05;;;;;;;;;;5019938;28;20092;-83
2021/05/20 01:44:43;;;;;;;4.68;3.22;;;;;;;;;;5021380;28;20054;-84
2021/05/20 01:47:09;;;;;;;4.70;3.10;;;;;;;;;;5032832;28;20195;-82
2021/05/20 01:49:35;;;;;;;6.30;2.92;;;;;;;;;;5039125;28;20076;-83
2021/05/20 01:52:01;;;;;;;4.75;3.08;;;;;;;;;;5040790;28;20488;-83
2021/05/20 01:54:28;;;;;;;4.57;2.75;;;;;;;;;;5034743;28;20103;-82
2021/05/20 01:56:53;;;;;;;5.82;3.20;;;;;;;;;;5036515;28;20563;-82
2021/05/20 01:59:20;;;;;;;4.13;2.67;;;;;;;;;;5040805;28;20054;-82
2021/05/20 02:01:46;;;;;;;3.72;2.70;;;;;;;;;;5040640;28;20067;-82
2021/05/20 02:04:12;;;;;;;5.93;3.08;;;;;;;;;;5040565;28;20053;-82
2021/05/20 02:06:38;;;;;;;5.53;3.30;;;;;;;;;;5041541;28;20539;-82
2021/05/20 02:09:05;;;;;;;4.32;3.03;;;;;;;;;;5041121;28;20079;-82
2021/05/20 02:11:32;;;;;;;4.63;2.78;;;;;;;;;;5041824;28;20046;-82
2021/05/20 02:13:58;;;;;;;4.47;2.63;;;;;;;;;;5040878;28;20041;-81
2021/05/20 02:16:24;;;;;;;5.15;3.03;;;;;;;;;;5044104;28;20132;-82
2021/05/20 02:18:50;;;;;;;6.68;2.55;;;;;;;;;;5042068;28;20499;-80
2021/05/20 02:21:16;;;;;;;4.28;2.40;;;;;;;;;;5044305;28;20045;-81
2021/05/20 02:23:42;;;;;;;3.92;2.40;;;;;;;;;;5046225;28;20113;-81
2021/05/20 02:26:08;;;;;;;4.25;2.42;;;;;;;;;;5041772;28;20057;-81
2021/05/20 02:28:35;;;;;;;4.25;2.20;;;;;;;;;;5005778;28;20079;-80
2021/05/20 02:31:01;;;;;;;4.25;2.20;;;;;;;;;;5039342;28;20057;-80
2021/05/20 02:33:27;;;;;;;4.40;2.78;;;;;;;;;;5054682;28;20049;-81
2021/05/20 02:35:53;;;;;;;4.00;2.38;;;;;;;;;;5058364;28;20045;-80
2021/05/20 02:38:19;;;;;;;3.42;2.13;;;;;;;;;;5058845;28;20094;-80
2021/05/20 02:40:45;;;;;;;3.65;2.17;;;;;;;;;;5056619;28;20053;-82
2021/05/20 02:43:11;;;;;;;4.05;1.88;;;;;;;;;;5058301;28;20074;-82
2021/05/20 02:45:38;;;;;;;3.47;1.85;;;;;;;;;;5048704;28;20045;-82
2021/05/20 02:48:05;;;;;;;5.07;1.83;;;;;;;;;;5038037;28;20049;-80
2021/05/20 02:50:31;;;;;;;3.70;1.80;;;;;;;;;;5037880;28;20053;-80
2021/05/20 02:52:57;;;;;;;3.47;1.55;;;;;;;;;;5037618;28;20115;-81
2021/05/20 02:55:24;;;;;;;2.58;1.98;;;;;;;;;;5045237;28;20504;-82
2021/05/20 02:57:53;;;;;;;3.88;1.90;;;;;;;;;;5038479;28;20113;-82
2021/05/20 03:00:20;;;;;;;4.22;1.70;;;;;;;;;;5038424;28;20136;-80
2021/05/20 03:02:48;;;;;;;3.00;1.70;;;;;;;;;;5038424;28;20081;-82
2021/05/20 03:05:14;;;;;;;2.17;1.40;;;;;;;;;;5037831;28;20046;-80
2021/05/20 03:07:40;;;;;;;5.20;1.90;;;;;;;;;;5040268;28;20053;-81
2021/05/20 03:10:08;;;;;;;3.30;1.50;;;;;;;;;;5042771;28;20556;-80
2021/05/20 03:12:34;;;;;;;3.03;1.70;;;;;;;;;;5042721;28;20053;-81
2021/05/20 03:15:00;;;;;;;3.15;1.65;;;;;;;;;;5043056;28;20073;-81
2021/05/20 03:17:26;;;;;;;1.98;1.30;;;;;;;;;;5043233;28;20050;-82
2021/05/20 03:19:53;;;;;;;2.72;1.60;;;;;;;;;;5038706;28;20072;-83
2021/05/20 03:22:21;;;;;;;3.65;1.42;;;;;;;;;;5043184;28;20042;-83
2021/05/20 03:24:49;;;;;;;2.47;1.70;;;;;;;;;;5041266;28;20049;-81
2021/05/20 03:27:15;;;;;;;3.63;2.00;;;;;;;;;;5041106;28;20050;-82
2021/05/20 03:29:41;;;;;;;3.83;1.80;;;;;;;;;;5047488;28;20060;-82
2021/05/20 03:32:07;;;;;;;4.75;1.73;;;;;;;;;;5042261;28;20050;-82
2021/05/20 03:34:33;;;;;;;4.18;1.92;;;;;;;;;;5042041;28;20057;-82
2021/05/20 03:37:00;;;;;;;4.85;2.28;;;;;;;;;;5044006;28;20045;-82
2021/05/20 03:39:26;;;;;;;3.85;2.40;;;;;;;;;;5044194;28;20046;-81
2021/05/20 03:41:52;;;;;;;4.10;1.77;;;;;;;;;;5044625;28;20087;-82
2021/05/20 03:44:18;;;;;;;4.40;2.22;;;;;;;;;;5049375;28;20060;-82
2021/05/20 03:46:44;;;;;;;4.22;2.10;;;;;;;;;;5050278;28;20056;-81
2021/05/20 03:49:10;;;;;;;5.28;2.30;;;;;;;;;;5044070;28;20595;-81
2021/05/20 03:51:36;;;;;;;5.07;2.85;;;;;;;;;;5041320;28;20037;-81
2021/05/20 03:54:04;;;;;;;7.55;2.53;;;;;;;;;;5042147;28;20513;-82
2021/05/20 03:56:30;;;;;;;4.88;2.33;;;;;;;;;;5040886;28;20056;-81
2021/05/20 03:58:56;;;;;;;4.03;2.63;;;;;;;;;;5041462;28;20050;-81
2021/05/20 04:01:22;;;;;;;5.00;2.80;;;;;;;;;;5041241;28;20095;-81
2021/05/20 04:03:48;;;;;;;4.05;2.97;;;;;;;;;;5040943;28;20543;-81
2021/05/20 04:06:14;;;;;;;4.50;2.58;;;;;;;;;;5041904;28;20103;-82
2021/05/20 04:08:40;;;;;;;5.40;2.65;;;;;;;;;;5042078;28;20493;-81
2021/05/20 04:11:07;;;;;;;4.97;2.90;;;;;;;;;;5060479;28;20045;-81
2021/05/20 04:13:35;;;;;;;3.58;2.33;;;;;;;;;;5042730;28;20055;-82
2021/05/20 04:16:02;;;;;;;6.10;2.72;;;;;;;;;;5043344;28;20071;-82
2021/05/20 04:18:28;;;;;;;3.90;2.75;;;;;;;;;;5045786;28;20049;-83
2021/05/20 04:20:55;;;;;;;3.53;2.53;;;;;;;;;;5041992;28;20053;-82
2021/05/20 04:23:21;;;;;;;3.78;2.50;;;;;;;;;;5025397;28;20050;-82
2021/05/20 04:25:48;;;;;;;7.05;2.78;;;;;;;;;;5040610;28;20095;-81
2021/05/20 04:28:15;;;;;;;6.88;3.05;;;;;;;;;;5042035;28;20060;-82
2021/05/20 04:30:42;;;;;;;5.85;2.85;;;;;;;;;;5042474;28;20050;-81
2021/05/20 04:33:08;;;;;;;3.85;2.53;;;;;;;;;;5042607;28;20046;-81
2021/05/20 04:35:34;;;;;;;4.20;2.80;;;;;;;;;;5042173;28;20042;-81
2021/05/20 04:38:01;;;;;;;4.45;3.45;;;;;;;;;;5042541;28;20049;-81
2021/05/20 04:40:27;;;;;;;5.10;2.75;;;;;;;;;;5042115;28;20132;-82
2021/05/20 04:42:53;;;;;;;5.25;3.35;;;;;;;;;;5041420;28;20049;-83
2021/05/20 04:45:20;;;;;;;6.30;3.35;;;;;;;;;;5040264;28;20152;-82
2021/05/20 04:47:46;;;;;;;4.82;2.80;;;;;;;;;;5041178;28;20049;-82
2021/05/20 04:50:13;;;;;;;4.55;3.38;;;;;;;;;;5058959;28;20049;-83
2021/05/20 04:52:39;;;;;;;4.55;2.95;;;;;;;;;;5058485;28;20048;-82
2021/05/20 04:55:06;;;;;;;5.70;3.20;;;;;;;;;;5060078;28;20533;-82
2021/05/20 04:57:32;;;;;;;4.28;3.13;;;;;;;;;;5042240;28;20482;-82
2021/05/20 04:59:59;;;;;;;5.03;3.25;;;;;;;;;;5039668;28;20050;-81
2021/05/20 05:02:26;;;;;;;4.68;2.88;;;;;;;;;;5040811;28;20061;-80
2021/05/20 05:04:52;;;;;;;4.38;3.00;;;;;;;;;;5040179;28;20050;-83
2021/05/20 05:07:18;;;;;;;5.22;3.35;;;;;;;;;;5039243;28;20042;-83
2021/05/20 05:09:44;;;;;;;5.57;3.35;;;;;;;;;;5040605;28;20049;-83
2021/05/20 05:12:10;;;;;;;5.65;2.80;;;;;;;;;;5039220;28;20511;-81
2021/05/20 05:14:36;;;;;;;4.88;2.80;;;;;;;;;;5039320;28;20076;-82
2021/05/20 05:17:02;;;;;;;4.78;2.85;;;;;;;;;;5054261;28;20072;-82
2021/05/20 05:19:29;;;;;;;7.28;2.72;;;;;;;;;;5058398;28;20041;-81
2021/05/20 05:21:56;;;;;;;4.47;2.88;;;;;;;;;;5039592;28;20056;-83
2021/05/20 05:24:22;;;;;;;5.57;3.53;;;;;;;;;;5040082;28;20053;-81
2021/05/20 05:26:48;;;;;;;6.10;2.95;;;;;;;;;;5039450;28;20049;-82
2021/05/20 05:29:14;;;;;;;4.70;2.95;;;;;;;;;;5038189;28;20081;-80
2021/05/20 05:31:40;;;;;;;4.85;2.90;;;;;;;;;;5025853;28;20048;-80
2021/05/20 05:34:06;;;;;;;5.85;3.28;;;;;;;;;;5058717;28;20447;-79
2021/05/20 05:36:33;;;;;;;7.47;3.03;;;;;;;;;;5059239;28;20075;-81
2021/05/20 05:38:59;;;;;;;5.05;2.75;;;;;;;;;;5058563;28;20040;-83
2021/05/20 05:41:25;;;;;;;5.93;3.30;;;;;;;;;;5059361;28;20787;-82
2021/05/20 05:43:51;;;;;;;4.45;3.00;;;;;;;;;;5060142;28;20041;-81
2021/05/20 05:46:17;;;;;;;4.47;2.85;;;;;;;;;;5043235;28;20394;-82
2021/05/20 05:48:44;;;;;;;3.72;2.45;;;;;;;;;;5039694;28;20046;-81
2021/05/20 05:51:13;;;;;;;4.68;2.20;;;;;;;;;;5042815;28;20163;-82
2021/05/20 05:53:41;;;;;;;4.22;2.97;;;;;;;;;;5039447;28;20041;-82
2021/05/20 05:56:08;;;;;;;3.45;2.05;;;;;;;;;;5036599;28;20425;-82
2021/05/20 05:58:35;;;;;;;6.45;2.80;;;;;;;;;;5039841;28;20397;-83
2021/05/20 06:01:02;;;;;;;4.68;2.53;;;;;;;;;;5038141;28;20057;-85
2021/05/20 06:03:29;;;;;;;5.60;2.50;;;;;;;;;;5039388;28;20049;-81
2021/05/20 06:05:56;;;;;;;4.68;2.35;;;;;;;;;;5043032;28;20045;-85
2021/05/20 06:08:22;;;;;;;4.72;2.42;;;;;;;;;;5041685;28;20053;-83
2021/05/20 06:10:51;;;;;;;3.47;2.25;;;;;;;;;;5043313;28;20052;-85
2021/05/20 06:13:19;;;;;;;4.25;2.20;;;;;;;;;;5041831;28;20109;-84
2021/05/20 06:15:45;;;;;;;3.35;2.08;;;;;;;;;;5040358;28;20080;-82
2021/05/20 06:18:11;;;;;;;3.80;2.72;;;;;;;;;;5022341;28;20056;-82
2021/05/20 06:20:40;;;;;;;3.33;1.80;;;;;;;;;;5041018;28;20041;-83
2021/05/20 06:23:20;;;;;;;4.07;1.92;;;;;;;;;;5041561;28;20142;-84
2021/05/20 06:25:46;;;;;;;2.92;1.65;;;;;;;;;;5041507;28;20099;-82
2021/05/20 06:28:13;;;;;;;5.18;1.73;;;;;;;;;;5040489;28;20049;-82
2021/05/20 06:30:41;;;;;;;4.78;1.80;;;;;;;;;;5041155;28;20045;-86
2021/05/20 06:33:15;;;;;;;3.17;1.63;;;;;;;;;;5035749;28;20133;-84
2021/05/20 06:35:46;;;;;;;3.95;1.35;;;;;;;;;;5024147;28;20052;-85
2021/05/20 06:38:12;;;;;;;2.40;1.10;;;;;;;;;;5039138;28;20505;-84
2021/05/20 06:40:38;;;;;;;2.67;1.30;;;;;;;;;;5022939;28;20072;-81
2021/05/20 06:43:06;;;;;;;2.28;1.40;;;;;;;;;;5023556;28;20050;-85
2021/05/20 06:45:33;;;;;;;2.72;1.25;;;;;;;;;;5024252;28;20054;-85
2021/05/20 06:48:02;;;;;;;2.20;1.13;;;;;;;;;;5021230;28;20053;-86
2021/05/20 06:50:28;;;;;;;3.85;1.48;;;;;;;;;;5022443;28;20046;-82
2021/05/20 06:52:55;;;;;;;2.72;1.30;;;;;;;;;;5021657;28;20042;-84
2021/05/20 06:55:22;;;;;;;2.05;1.30;;;;;;;;;;5041789;28;20115;-86
2021/05/20 07:00:34;;;;;;;3.90;1.33;;;;;;;;;;5039099;28;20107;-83
2021/05/20 07:03:00;;;;;;;4.85;1.73;;;;;;;;;;5039638;28;20440;-83
2021/05/20 07:05:26;;;;;;;3.67;1.70;;;;;;;;;;5039444;28;20053;-84
2021/05/20 07:07:52;;;;;;;2.22;1.30;;;;;;;;;;5040014;28;20049;-83
2021/05/20 07:10:19;;;;;;;3.15;1.40;;;;;;;;;;5040755;28;20100;-85
2021/05/20 07:12:45;;;;;;;3.10;1.30;;;;;;;;;;5046911;28;20045;-84
2021/05/20 07:15:12;;;;;;;3.20;1.67;;;;;;;;;;5047815;28;20055;-87
2021/05/20 07:17:38;;;;;;;4.47;2.05;;;;;;;;;;5041303;28;20042;-83
2021/05/20 07:20:06;;;;;;;4.15;1.60;;;;;;;;;;5024681;28;20042;-83
2021/05/20 07:22:32;;;;;;;3.38;1.50;;;;;;;;;;5036315;28;20052;-82
2021/05/20 07:25:02;;;;;;;2.63;1.50;;;;;;;;;;5037522;28;20109;-81
2021/05/20 07:27:28;;;;;;;3.45;1.70;;;;;;;;;;5037576;28;20041;-83
2021/05/20 07:29:54;;;;;;;3.33;1.40;;;;;;;;;;5038388;28;20508;-84
2021/05/20 07:32:20;;;;;;;4.00;1.67;;;;;;;;;;5039862;28;20076;-83
2021/05/20 07:34:47;;;;;;;2.78;1.60;;;;;;;;;;5039226;28;20052;-84
2021/05/20 07:37:13;;;;;;;2.60;1.35;;;;;;;;;;5039584;28;20087;-85
2021/05/20 07:39:39;;;;;;;4.63;1.40;;;;;;;;;;5039218;28;20492;-81
2021/05/20 07:42:06;;;;;;;2.60;1.10;;;;;;;;;;5034868;28;20034;-83
2021/05/20 07:44:38;;;;;;;2.53;1.30;;;;;;;;;;5036245;28;20489;-86
2021/05/20 07:47:04;;;;;;;3.42;1.60;;;;;;;;;;5037521;28;20057;-83
2021/05/20 07:49:31;;;;;;;3.88;1.63;;;;;;;;;;5034653;28;20046;-80
2021/05/20 07:51:58;;;;;;;5.13;1.08;;;;;;;;;;5036547;28;20041;-82
2021/05/20 07:54:24;;;;;;;2.55;1.05;;;;;;;;;;5040630;28;20053;-85
2021/05/20 07:56:50;;;;;;;1.58;1.15;;;;;;;;;;5044133;28;20515;-84
2021/05/20 07:59:16;;;;;;;1.77;1.10;;;;;;;;;;5050204;28;20050;-82
2021/05/20 08:01:50;;;;;;;2.30;1.00;;;;;;;;;;5045862;28;20046;-85
2021/05/20 08:04:18;;;;;;;2.08;1.02;;;;;;;;;;5046500;28;20136;-82
2021/05/20 08:06:49;;;;;;;1.50;0.82;;;;;;;;;;5039185;28;20041;-82
2021/05/20 08:09:22;;;;;;;1.50;0.82;;;;;;;;;;5040047;28;20080;-85
2021/05/20 08:11:49;;;;;;;2.75;0.73;;;;;;;;;;5034128;28;20111;-82
2021/05/20 08:14:15;;;;;;;1.90;1.00;;;;;;;;;;5039530;28;20037;-83
2021/05/20 08:16:41;;;;;;;2.20;0.80;;;;;;;;;;5041601;28;20489;-84
2021/05/20 08:19:08;;;;;;;0.95;0.68;;;;;;;;;;5036617;28;20056;-82
2021/05/20 08:21:34;;;;;;;0.82;0.68;;;;;;;;;;5037600;28;20045;-83
2021/05/20 08:24:00;;;;;;;1.17;0.70;;;;;;;;;;5038993;28;20642;-82
2021/05/20 08:26:27;;;;;;;1.63;1.02;;;;;;;;;;5030570;28;20042;-85
2021/05/20 08:28:54;;;;;;;1.02;0.77;;;;;;;;;;5041254;28;20060;-85
2021/05/20 08:31:20;;;;;;;1.52;1.13;;;;;;;;;;5039485;28;20541;-86
2021/05/20 08:33:46;;;;;;;1.80;0.90;;;;;;;;;;5039217;28;20557;-82
2021/05/20 08:36:12;;;;;;;4.63;1.20;;;;;;;;;;5038292;28;20053;-82
2021/05/20 08:38:38;;;;;;;2.25;0.93;;;;;;;;;;5039165;28;20049;-82
2021/05/20 08:41:04;;;;;;;1.10;0.75;;;;;;;;;;5038370;28;20046;-82
2021/05/20 08:43:31;;;;;;;1.08;0.65;;;;;;;;;;5037437;28;20049;-82
2021/05/20 08:45:58;;;;;;;1.35;0.80;;;;;;;;;;5020464;28;20099;-82
2021/05/20 08:48:24;;;;;;;1.65;0.73;;;;;;;;;;5036552;28;20053;-83
2021/05/20 08:50:50;;;;;;;1.38;0.50;;;;;;;;;;5037121;28;20064;-85
2021/05/20 08:53:16;;;;;;;1.25;0.68;;;;;;;;;;5037109;28;20052;-81
2021/05/20 08:55:42;;;;;;;3.13;0.80;;;;;;;;;;5036596;28;20052;-80
2021/05/20 08:58:10;;;;;;;1.60;0.70;;;;;;;;;;5037320;28;20071;-81
2021/05/20 09:00:38;;;;;;;3.53;1.50;;;;;;;;;;5037439;28;20492;-82
2021/05/20 09:03:06;;;;;;;1.85;0.77;;;;;;;;;;5037204;28;20394;-82
2021/05/20 09:05:32;;;;;;;1.77;0.70;;;;;;;;;;5037519;28;20072;-81
2021/05/20 09:08:01;;;;;;;0.98;0.50;;;;;;;;;;5034491;28;20408;-82
2021/05/20 09:10:28;;;;;;;2.90;0.90;;;;;;;;;;5038765;28;20383;-82
2021/05/20 09:12:58;;;;;;;3.13;0.65;;;;;;;;;;5038618;28;20049;-82
2021/05/20 09:15:30;;;;;;;1.42;0.57;;;;;;;;;;5037805;28;20049;-81
2021/05/20 09:18:09;;;;;;;0.80;0.68;;;;;;;;;;5032731;28;20132;-84
2021/05/20 09:20:37;;;;;;;2.33;1.05;;;;;;;;;;5032213;28;20496;-81
2021/05/20 09:23:05;;;;;;;1.23;0.70;;;;;;;;;;5034928;28;20056;-83
2021/05/20 09:25:33;;;;;;;2.17;0.80;;;;;;;;;;5034087;28;20055;-82
2021/05/20 09:28:00;;;;;;;1.05;0.60;;;;;;;;;;5032992;28;20072;-83
2021/05/20 09:30:27;;;;;;;1.17;0.70;;;;;;;;;;5037928;28;20050;-82
2021/05/20 09:32:56;;;;;;;2.30;0.47;;;;;;;;;;5038702;28;20052;-82
2021/05/20 09:35:24;;;;;;;1.33;0.60;;;;;;;;;;5041629;28;20037;-81
2021/05/20 09:38:00;;;;;;;1.55;0.73;;;;;;;;;;5031694;28;20049;-82
2021/05/20 09:40:28;;;;;;;1.50;0.70;;;;;;;;;;5039199;28;20046;-84
2021/05/20 09:42:55;;;;;;;2.92;0.88;;;;;;;;;;5038436;28;20080;-83
2021/05/20 09:45:26;;;;;;;3.20;0.52;;;;;;;;;;5041325;28;20051;-82
2021/05/20 09:48:06;;;;;;;1.50;0.40;;;;;;;;;;5041692;28;20113;-85
2021/05/20 09:50:37;;;;;;;1.52;0.50;;;;;;;;;;5043802;28;20056;-80
2021/05/20 09:53:12;;;;;;;0.30;0.30;;;;;;;;;;5041584;28;20505;-86
2021/05/20 09:55:46;;;;;;;0.85;0.40;;;;;;;;;;5041915;28;20103;-83
2021/05/20 09:58:17;;;;;;;0.90;0.38;;;;;;;;;;5041949;28;20049;-85
2021/05/20 10:00:45;;;;;;;0.85;0.50;;;;;;;;;;5042198;28;20132;-84
2021/05/20 10:03:13;;;;;;;2.15;0.40;;;;;;;;;;5039992;28;20081;-85
2021/05/20 10:05:43;;;;;;;0.60;0.60;;;;;;;;;;5041763;28;20497;-86
2021/05/20 10:08:11;;;;;;;1.42;0.30;;;;;;;;;;5042917;28;20057;-82
2021/05/20 10:10:42;;;;;;;0.75;0.43;;;;;;;;;;5039475;28;20515;-82
2021/05/20 10:13:10;;;;;;;0.32;0.28;;;;;;;;;;5040862;28;20099;-86
2021/05/20 10:15:37;;;;;;;0.52;0.22;;;;;;;;;;5041143;28;20057;-83
2021/05/20 10:18:05;;;;;;;1.40;0.50;;;;;;;;;;5038854;28;20042;-84
2021/05/20 10:20:31;;;;;;;1.27;0.77;;;;;;;;;;5038937;28;20068;-84
2021/05/20 10:23:00;;;;;;;2.38;0.70;;;;;;;;;;5040275;28;20045;-83
2021/05/20 10:25:58;;;;;;;1.35;0.30;;;;;;;;;;5039499;28;20045;-84
2021/05/20 10:28:26;;;;;;;2.55;0.50;;;;;;;;;;5036896;28;20110;-82
2021/05/20 10:30:58;;;;;;;1.40;0.50;;;;;;;;;;5034053;28;20053;-83
2021/05/20 10:33:26;;;;;;;1.98;0.60;;;;;;;;;;5034312;28;20071;-82
2021/05/20 10:35:54;;;;;;;0.60;0.45;;;;;;;;;;5038714;28;20486;-80
2021/05/20 10:41:15;;;;;;;2.15;0.60;;;;;;;;;;5130398;27;20350;-66
2021/05/20 10:43:42;;;;;;;1.55;0.60;;;;;;;;;;5130052;28;20051;-67
2021/05/20 10:46:09;;;;;;;0.50;0.28;;;;;;;;;;5129201;28;20043;-67
2021/05/20 10:48:35;;;;;;;1.45;0.40;;;;;;;;;;5136797;27;20486;-67
2021/05/20 10:51:20;;;;;;;1.27;0.40;;;;;;;;;;5130560;27;20605;-69
2021/05/20 10:53:49;;;;;;;3.88;0.40;;;;;;;;;;5127710;28;20055;-67
2021/05/20 10:56:54;;;;;;;0.93;0.40;;;;;;;;;;5129478;27;20398;-67
2021/05/20 10:59:41;;;;;;;0.98;0.43;;;;;;;;;;5129455;28;20075;-68
2021/05/20 11:02:32;;;;;;;0.43;0.40;;;;;;;;;;5130502;28;20056;-67
2021/05/20 11:04:58;;;;;;;0.52;0.43;;;;;;;;;;5112536;28;20088;-67
2021/05/20 11:07:31;;;;;;;1.38;0.40;;;;;;;;;;5129344;27;20048;-66
2021/05/20 11:10:09;;;;;;;2.45;0.50;;;;;;;;;;5130402;28;20070;-66
2021/05/20 11:12:54;;;;;;;1.20;0.45;;;;;;;;;;5123330;28;20050;-67
2021/05/20 11:15:21;;;;;;;1.42;0.73;;;;;;;;;;5128141;28;20137;-67
2021/05/20 11:17:47;;;;;;;1.42;0.65;;;;;;;;;;5124241;28;20054;-67
2021/05/20 11:23:32;;;;;;;3.28;0.90;;;;;;;;;;5122352;28;20423;-68
2021/05/20 11:26:18;;;;;;;1.38;0.60;;;;;;;;;;5129637;28;20062;-68
2021/05/20 11:28:54;;;;;;;1.27;0.60;;;;;;;;;;5127123;28;20054;-68
2021/05/20 11:31:22;;;;;;;1.85;0.65;;;;;;;;;;5130296;27;20130;-69
2021/05/20 11:34:03;;;;;;;2.08;0.52;;;;;;;;;;5130153;27;20051;-69
2021/05/20 11:36:40;;;;;;;1.40;0.63;;;;;;;;;;5129950;28;20051;-68
2021/05/20 11:39:08;;;;;;;0.80;0.45;;;;;;;;;;5118358;28;20047;-67
2021/05/20 11:41:35;;;;;;;0.52;0.52;;;;;;;;;;5122463;28;20090;-67
2021/05/20 11:44:11;;;;;;;1.55;0.40;;;;;;;;;;5129120;27;20047;-67
2021/05/20 11:46:38;;;;;;;2.33;0.60;;;;;;;;;;5129377;28;20047;-67
2021/05/20 11:49:06;;;;;;;1.08;0.30;;;;;;;;;;5129284;28;20059;-67
2021/05/20 11:51:49;;;;;;;6.53;0.93;;;;;;;;;;5121044;28;20127;-69
2021/05/20 11:54:16;;;;;;;1.17;0.30;;;;;;;;;;5115466;28;20052;-68
2021/05/20 11:56:45;;;;;;;4.15;0.60;;;;;;;;;;5115353;28;20054;-67
2021/05/20 11:59:12;;;;;;;0.65;0.30;;;;;;;;;;5114323;28;20044;-67
2021/05/20 12:01:38;;;;;;;2.83;0.65;;;;;;;;;;5112298;28;20476;-67
2021/05/20 12:04:05;;;;;;;0.43;0.38;;;;;;;;;;5115686;28;20055;-67
2021/05/20 12:06:31;;;;;;;0.80;0.32;;;;;;;;;;5114726;28;20164;-67
2021/05/20 12:09:08;;;;;;;1.02;0.35;;;;;;;;;;5115168;28;20055;-67
2021/05/20 12:11:34;;;;;;;3.67;1.30;;;;;;;;;;5115385;28;20057;-68
2021/05/20 12:14:00;;;;;;;1.27;0.65;;;;;;;;;;5115216;28;20044;-67
2021/05/20 12:16:30;;;;;;;1.38;0.60;;;;;;;;;;5115298;28;20089;-67
2021/05/20 12:18:56;;;;;;;0.30;0.20;;;;;;;;;;5115015;28;20043;-68
2021/05/20 12:21:22;;;;;;;1.00;0.57;;;;;;;;;;5115162;28;20048;-68
2021/05/20 12:23:56;;;;;;;0.95;0.40;;;;;;;;;;5113076;28;20055;-67
2021/05/20 12:26:26;;;;;;;1.70;0.75;;;;;;;;;;5114522;28;20051;-68
2021/05/20 12:28:52;;;;;;;0.63;0.22;;;;;;;;;;5114107;27;20046;-67
2021/05/20 12:31:19;;;;;;;2.90;0.77;;;;;;;;;;5114423;28;20044;-68
2021/05/20 12:33:47;;;;;;;4.63;0.57;;;;;;;;;;5115135;28;20177;-68
2021/05/20 12:36:31;;;;;;;1.85;0.45;;;;;;;;;;5116679;27;20460;-69
2021/05/20 12:38:58;;;;;;;3.90;0.60;;;;;;;;;;5114827;28;20069;-67
2021/05/20 12:41:33;;;;;;;1.02;0.20;;;;;;;;;;5114956;28;20058;-68
2021/05/20 12:44:12;;;;;;;0.90;0.30;;;;;;;;;;5115067;28;20070;-67
2021/05/20 12:46:38;;;;;;;1.75;0.35;;;;;;;;;;5112264;28;20047;-67
2021/05/20 12:49:05;;;;;;;1.83;0.40;;;;;;;;;;5113753;27;20055;-68
2021/05/20 12:51:31;;;;;;;0.43;0.35;;;;;;;;;;5107553;28;20138;-68
2021/05/20 12:53:58;;;;;;;1.48;0.50;;;;;;;;;;5102378;28;20039;-68
2021/05/20 12:56:26;;;;;;;0.20;0.20;;;;;;;;;;5114235;28;20048;-68
2021/05/20 12:58:54;;;;;;;0.50;0.15;;;;;;;;;;5114085;28;20411;-68
2021/05/20 13:01:22;;;;;;;2.28;0.60;;;;;;;;;;5109650;28;20048;-67
2021/05/20 13:03:49;;;;;;;0.20;0.20;;;;;;;;;;5111262;28;20044;-68
2021/05/20 13:06:23;;;;;;;7.13;0.50;;;;;;;;;;5105608;28;20458;-68
2021/05/20 13:08:49;;;;;;;2.25;0.32;;;;;;;;;;5114396;28;20044;-68
2021/05/20 13:11:18;;;;;;;1.15;0.40;;;;;;;;;;5113787;28;20047;-68
2021/05/20 13:13:47;;;;;;;0.60;0.20;;;;;;;;;;5114253;28;20554;-69
2021/05/20 13:16:20;;;;;;;5.68;0.50;;;;;;;;;;5114282;28;20052;-68
2021/05/20 13:24:55;;;;;;;0.50;0.20;;;;;;;;;;5104166;28;20450;-68
2021/05/20 13:27:22;;;;;;;0.88;0.30;;;;;;;;;;5113666;28;20059;-70
2021/05/20 13:29:50;;;;;;;4.25;0.40;;;;;;;;;;5111968;28;20051;-68
2021/05/20 13:32:24;;;;;;;2.50;0.40;;;;;;;;;;5113136;28;20453;-68
2021/05/20 13:34:50;;;;;;;2.65;0.47;;;;;;;;;;5113983;28;20545;-67
2021/05/20 13:37:17;;;;;;;1.35;0.47;;;;;;;;;;5111915;28;20043;-68
2021/05/20 13:39:43;;;;;;;1.67;0.45;;;;;;;;;;5112585;28;20423;-68
2021/05/20 13:42:10;;;;;;;2.50;0.60;;;;;;;;;;5114332;27;20101;-69
2021/05/20 13:44:44;;;;;;;0.43;0.30;;;;;;;;;;5117887;27;20043;-68
2021/05/20 13:47:10;;;;;;;1.63;0.40;;;;;;;;;;5113851;28;20476;-67
2021/05/20 13:49:39;;;;;;;0.38;0.28;;;;;;;;;;5107876;28;20426;-68
2021/05/20 13:52:07;;;;;;;1.73;0.30;;;;;;;;;;5109549;28;20051;-67
2021/05/20 13:54:34;;;;;;;0.32;0.32;;;;;;;;;;5117373;27;20058;-67
2021/05/20 13:57:00;;;;;;;1.38;0.47;;;;;;;;;;5113635;28;20047;-68
2021/05/20 13:59:27;;;;;;;0.22;0.20;;;;;;;;;;5111371;27;20054;-67
2021/05/20 14:01:54;;;;;;;2.47;0.30;;;;;;;;;;5105086;28;20044;-67
2021/05/20 14:04:25;;;;;;;0.55;0.22;;;;;;;;;;5103979;28;20040;-67
2021/05/20 14:06:51;;;;;;;2.10;0.30;;;;;;;;;;5100287;28;20174;-68
2021/05/20 14:09:17;;;;;;;0.88;0.30;;;;;;;;;;5114579;27;20044;-67
2021/05/20 14:11:44;;;;;;;0.25;0.20;;;;;;;;;;5125787;27;20084;-68
2021/05/20 14:14:10;;;;;;;0.93;0.30;;;;;;;;;;5124126;27;20502;-68
2021/05/20 14:16:36;;;;;;;1.30;0.52;;;;;;;;;;5134155;27;20491;-69
2021/05/20 14:19:02;;;;;;;3.30;0.80;;;;;;;;;;5131491;27;20054;-68
2021/05/20 14:21:31;;;;;;;1.40;0.63;;;;;;;;;;5112934;28;20052;-69
2021/05/20 14:23:57;;;;;;;2.15;0.68;;;;;;;;;;5112627;28;20039;-69
2021/05/20 14:26:23;;;;;;;0.80;0.30;;;;;;;;;;5112275;28;20406;-69
2021/05/20 14:28:50;;;;;;;1.08;0.20;;;;;;;;;;5112952;28;20040;-68
2021/05/20 14:31:16;;;;;;;0.98;0.40;;;;;;;;;;5112166;28;20077;-68
2021/05/20 14:33:43;;;;;;;3.45;0.60;;;;;;;;;;5112462;28;20446;-69
2021/05/20 14:36:09;;;;;;;1.20;0.60;;;;;;;;;;5112703;28;20071;-67
2021/05/20 14:38:35;;;;;;;1.27;0.40;;;;;;;;;;5112777;28;20051;-68
2021/05/20 14:41:01;;;;;;;0.60;0.30;;;;;;;;;;5112435;28;20112;-68
2021/05/20 14:43:27;;;;;;;1.00;0.38;;;;;;;;;;5112885;28;20044;-68
2021/05/20 14:45:54;;;;;;;0.82;0.52;;;;;;;;;;5112997;28;20054;-67
2021/05/20 14:48:20;;;;;;;1.77;0.68;;;;;;;;;;5111555;28;20077;-67
2021/05/20 14:50:56;;;;;;;0.65;0.50;;;;;;;;;;5112503;28;20452;-68
2021/05/20 14:53:25;;;;;;;2.15;0.88;;;;;;;;;;5111023;28;20075;-67
2021/05/20 14:55:57;;;;;;;0.77;0.43;;;;;;;;;;5111339;28;20074;-67
2021/05/20 15:06:26;;;;;;;1.27;0.38;;;;;;;;;;5112760;28;20070;-67
2021/05/20 15:08:56;;;;;;;0.43;0.43;;;;;;;;;;5112040;28;20449;-67
2021/05/20 15:11:25;;;;;;;1.50;0.45;;;;;;;;;;5111460;28;20130;-68